createdAt,value
2019-03-28T00:00:41.739Z,12.30
2019-03-28T00:03:10.124Z,10.00
2019-03-28T00:05:38.555Z,10.27
2019-03-28T00:08:06.947Z,10.83
2019-03-28T00:10:35.441Z,16.33
2019-03-28T00:13:03.839Z,9.73
2019-03-28T00:15:32.373Z,15.03
2019-03-28T00:18:01.290Z,9.93
2019-03-28T00:20:29.704Z,10.50
2019-03-28T00:23:02.647Z,15.30
2019-03-28T00:25:31.306Z,10.97
2019-03-28T00:27:59.691Z,12.87
2019-03-28T00:30:28.097Z,13.27
2019-03-28T00:32:56.494Z,12.20
2019-03-28T00:35:24.896Z,11.57
2019-03-28T00:37:53.300Z,10.17
2019-03-28T00:40:21.699Z,9.23
2019-03-28T00:42:50.124Z,10.57
2019-03-28T00:45:18.519Z,11.90
2019-03-28T00:47:46.939Z,11.23
2019-03-28T00:50:15.476Z,11.33
2019-03-28T00:52:43.905Z,13.20
2019-03-28T00:55:12.303Z,11.60
2019-03-28T00:57:40.724Z,11.60
2019-03-28T01:00:09.553Z,13.13
2019-03-28T01:02:37.974Z,13.67
2019-03-28T01:05:06.816Z,9.30
2019-03-28T01:07:35.233Z,10.30
2019-03-28T01:10:04.673Z,9.80
2019-03-28T01:12:33.089Z,8.30
2019-03-28T01:15:01.491Z,10.70
2019-03-28T01:17:30.267Z,10.30
2019-03-28T01:19:58.762Z,9.00
2019-03-28T01:22:27.186Z,13.60
2019-03-28T01:24:57.838Z,11.27
2019-03-28T01:27:25.722Z,9.60
2019-03-28T01:29:54.133Z,7.30
2019-03-28T01:32:22.548Z,10.33
2019-03-28T01:34:50.952Z,11.90
2019-03-28T01:37:19.372Z,12.77
2019-03-28T01:39:47.757Z,14.20
2019-03-28T01:42:16.174Z,18.10
2019-03-28T01:44:44.582Z,11.27
2019-03-28T01:47:12.999Z,8.27
2019-03-28T01:49:41.404Z,13.30
2019-03-28T01:52:09.877Z,10.77
2019-03-28T01:54:38.282Z,13.43
2019-03-28T01:57:11.182Z,11.90
2019-03-28T01:59:36.836Z,11.67
2019-03-28T02:02:06.209Z,12.60
2019-03-28T02:04:34.595Z,10.87
2019-03-28T02:07:03.015Z,12.57
2019-03-28T02:09:32.315Z,15.07
2019-03-28T02:12:00.812Z,13.07
2019-03-28T02:14:29.314Z,13.57
2019-03-28T02:16:57.694Z,16.80
2019-03-28T02:19:26.103Z,14.40
2019-03-28T02:21:54.494Z,11.10
2019-03-28T02:24:24.484Z,15.60
2019-03-28T02:26:52.887Z,12.70
2019-03-28T02:29:21.291Z,10.33
2019-03-28T02:31:49.691Z,14.00
2019-03-28T02:34:18.104Z,13.83
2019-03-28T02:36:46.533Z,15.00
2019-03-28T02:39:14.946Z,14.57
2019-03-28T02:41:43.341Z,12.23
2019-03-28T02:44:12.006Z,10.07
2019-03-28T02:46:40.714Z,10.10
2019-03-28T02:49:09.124Z,17.70
2019-03-28T02:51:37.516Z,18.00
2019-03-28T02:54:06.776Z,21.03
2019-03-28T02:56:35.178Z,10.23
2019-03-28T02:59:03.577Z,15.23
2019-03-28T03:01:31.979Z,15.93
2019-03-28T03:04:00.392Z,13.17
2019-03-28T03:06:28.807Z,14.13
2019-03-28T03:08:57.211Z,14.20
2019-03-28T03:11:25.612Z,12.00
2019-03-28T03:13:54.030Z,12.63
2019-03-28T03:16:22.837Z,13.10
2019-03-28T03:18:51.424Z,18.40
2019-03-28T03:21:19.903Z,12.00
2019-03-28T03:23:48.343Z,12.97
2019-03-28T03:26:16.719Z,12.83
2019-03-28T03:28:45.140Z,12.60
2019-03-28T03:31:13.542Z,14.17
2019-03-28T03:33:41.954Z,13.10
2019-03-28T03:36:10.361Z,14.27
2019-03-28T03:38:38.777Z,12.73
2019-03-28T03:41:07.247Z,16.03
2019-03-28T03:43:35.662Z,14.60
2019-03-28T03:46:04.061Z,12.90
2019-03-28T03:48:32.458Z,13.13
2019-03-28T03:51:00.858Z,13.30
2019-03-28T03:53:29.278Z,11.80
2019-03-28T03:55:57.693Z,13.60
2019-03-28T03:58:26.099Z,11.00
2019-03-28T04:00:54.516Z,14.73
2019-03-28T04:03:22.898Z,13.57
2019-03-28T04:05:51.325Z,14.00
2019-03-28T04:08:19.713Z,13.73
2019-03-28T04:10:48.124Z,15.50
2019-03-28T04:13:16.506Z,15.07
2019-03-28T04:15:44.927Z,19.33
2019-03-28T04:18:13.929Z,17.67
2019-03-28T04:20:42.522Z,14.00
2019-03-28T04:23:11.003Z,13.53
2019-03-28T04:25:39.956Z,11.63
2019-03-28T04:28:08.588Z,14.33
2019-03-28T04:30:37.003Z,16.03
2019-03-28T04:33:05.415Z,14.33
2019-03-28T04:35:34.814Z,15.90
2019-03-28T04:38:03.221Z,12.67
2019-03-28T04:40:31.634Z,14.40
2019-03-28T04:43:00.065Z,13.50
2019-03-28T04:45:28.539Z,15.23
2019-03-28T04:47:56.940Z,13.23
2019-03-28T04:50:25.362Z,11.33
2019-03-28T04:52:53.756Z,15.50
2019-03-28T04:55:22.171Z,14.70
2019-03-28T04:57:50.573Z,13.70
2019-03-28T05:00:19.428Z,14.20
2019-03-28T05:02:47.824Z,17.80
2019-03-28T05:05:16.217Z,13.67
2019-03-28T05:07:44.610Z,18.30
2019-03-28T05:10:13.457Z,12.90
2019-03-28T05:12:41.841Z,16.13
2019-03-28T05:15:10.896Z,15.10
2019-03-28T05:17:39.348Z,12.23
2019-03-28T05:20:08.641Z,15.47
2019-03-28T05:22:37.025Z,14.73
2019-03-28T05:25:06.697Z,16.70
2019-03-28T05:27:35.100Z,13.83
2019-03-28T05:30:08.641Z,17.60
2019-03-28T05:32:37.099Z,19.83
2019-03-28T05:35:07.052Z,18.93
2019-03-28T05:37:36.377Z,18.10
2019-03-28T05:40:06.470Z,24.93
2019-03-28T05:42:34.875Z,14.50
2019-03-28T05:45:04.355Z,19.17
2019-03-28T05:47:32.777Z,16.97
2019-03-28T05:50:01.204Z,17.43
2019-03-28T05:52:29.608Z,16.67
2019-03-28T05:54:58.023Z,14.20
2019-03-28T05:57:26.427Z,19.70
2019-03-28T05:59:54.818Z,19.60
2019-03-28T06:02:23.315Z,30.93
2019-03-28T06:04:51.721Z,14.93
2019-03-28T06:07:20.125Z,18.37
2019-03-28T06:09:48.527Z,15.53
2019-03-28T06:12:19.052Z,18.20
2019-03-28T06:14:47.071Z,17.97
2019-03-28T06:17:15.486Z,16.00
2019-03-28T06:19:43.900Z,18.23
2019-03-28T06:22:12.328Z,20.87
2019-03-28T06:24:40.744Z,22.73
2019-03-28T06:27:09.155Z,30.70
2019-03-28T06:29:37.551Z,24.70
2019-03-28T06:32:05.970Z,19.53
2019-03-28T06:34:34.358Z,22.33
2019-03-28T06:37:02.786Z,16.03
2019-03-28T06:39:31.169Z,20.23
2019-03-28T06:41:59.588Z,19.90
2019-03-28T06:44:27.990Z,22.93
2019-03-28T06:46:56.394Z,18.40
2019-03-28T06:49:24.799Z,18.63
2019-03-28T06:51:53.215Z,17.97
2019-03-28T06:54:24.206Z,17.60
2019-03-28T06:56:51.770Z,18.13
2019-03-28T06:59:20.225Z,22.50
2019-03-28T07:01:48.676Z,16.00
2019-03-28T07:04:17.068Z,20.27
2019-03-28T07:06:45.463Z,22.43
2019-03-28T07:09:13.863Z,16.30
2019-03-28T07:11:42.278Z,17.10
2019-03-28T07:14:10.666Z,18.57
2019-03-28T07:16:39.083Z,20.47
2019-03-28T07:19:07.497Z,25.70
2019-03-28T07:21:35.914Z,23.20
2019-03-28T07:24:04.445Z,18.50
2019-03-28T07:26:32.928Z,18.37
2019-03-28T07:29:01.345Z,17.60
2019-03-28T07:31:29.751Z,17.50
2019-03-28T07:33:58.152Z,18.80
2019-03-28T07:36:26.570Z,16.53
2019-03-28T07:38:54.975Z,19.90
2019-03-28T07:41:23.398Z,20.67
2019-03-28T07:43:51.792Z,19.13
2019-03-28T07:46:20.225Z,19.20
2019-03-28T07:48:48.632Z,19.07
2019-03-28T07:51:17.035Z,16.50
2019-03-28T07:53:45.461Z,19.30
2019-03-28T07:56:13.863Z,16.97
2019-03-28T07:58:44.198Z,22.67
2019-03-28T08:01:12.396Z,19.70
2019-03-28T08:03:40.832Z,19.27
2019-03-28T08:06:09.240Z,16.50
2019-03-28T08:08:39.201Z,18.77
2019-03-28T08:11:08.579Z,17.17
2019-03-28T08:13:37.078Z,18.23
2019-03-28T08:16:05.480Z,14.13
2019-03-28T08:18:33.901Z,23.17
2019-03-28T08:21:02.303Z,17.73
2019-03-28T08:23:30.702Z,18.80
2019-03-28T08:25:59.094Z,19.00
2019-03-28T08:28:27.525Z,24.50
2019-03-28T08:30:56.001Z,18.90
2019-03-28T08:33:24.483Z,43.87
2019-03-28T08:35:53.341Z,16.27
2019-03-28T08:38:22.898Z,17.13
2019-03-28T08:40:51.681Z,19.30
2019-03-28T08:43:20.290Z,15.73
2019-03-28T08:45:48.740Z,37.63
2019-03-28T08:48:17.241Z,21.97
2019-03-28T08:50:45.635Z,18.47
2019-03-28T08:53:14.043Z,15.73
2019-03-28T08:55:42.452Z,17.80
2019-03-28T08:58:10.867Z,14.70
2019-03-28T09:00:51.788Z,10.83
2019-03-28T09:03:09.497Z,15.97
2019-03-28T09:05:37.899Z,12.53
2019-03-28T09:08:09.373Z,17.07
2019-03-28T09:10:37.765Z,13.90
2019-03-28T09:13:06.269Z,12.80
2019-03-28T09:15:43.485Z,20.20
2019-03-28T09:18:05.450Z,19.70
2019-03-28T09:20:33.851Z,16.07
2019-03-28T09:23:21.599Z,16.20
2019-03-28T09:25:50.007Z,17.77
2019-03-28T09:28:18.440Z,13.23
2019-03-28T09:30:49.184Z,12.60
2019-03-28T09:33:16.983Z,10.27
2019-03-28T09:35:45.544Z,15.23
2019-03-28T09:38:13.981Z,9.43
2019-03-28T09:40:42.374Z,13.10
2019-03-28T09:43:30.127Z,11.27
2019-03-28T09:46:00.396Z,13.53
2019-03-28T09:48:28.663Z,12.60
2019-03-28T09:50:57.062Z,11.93
2019-03-28T09:53:25.491Z,14.50
2019-03-28T09:55:53.887Z,15.07
2019-03-28T09:58:22.313Z,12.37
2019-03-28T10:01:01.968Z,11.73
2019-03-28T10:03:21.315Z,10.70
2019-03-28T10:05:50.263Z,11.60
2019-03-28T10:08:18.685Z,10.03
2019-03-28T10:10:48.699Z,12.20
2019-03-28T10:13:17.641Z,9.30
2019-03-28T10:15:46.041Z,8.23
2019-03-28T10:18:14.442Z,9.50
2019-03-28T10:20:42.867Z,11.90
2019-03-28T10:23:11.285Z,12.80
2019-03-28T10:25:40.926Z,13.17
2019-03-28T10:28:09.318Z,7.60
2019-03-28T10:30:40.343Z,9.03
2019-03-28T10:33:09.171Z,6.90
2019-03-28T10:35:37.650Z,10.07
2019-03-28T10:38:06.287Z,5.37
2019-03-28T10:40:34.828Z,5.00
2019-03-28T10:43:03.229Z,5.40
2019-03-28T10:45:33.600Z,7.80
2019-03-28T10:48:01.744Z,5.40
2019-03-28T10:50:41.295Z,5.93
2019-03-28T10:53:00.286Z,11.00
2019-03-28T10:55:28.709Z,5.30
2019-03-28T10:57:57.108Z,7.47
2019-03-28T11:00:25.906Z,7.17
2019-03-28T11:02:54.664Z,4.97
2019-03-28T11:05:23.201Z,18.37
2019-03-28T11:07:51.628Z,6.47
2019-03-28T11:10:20.241Z,8.47
2019-03-28T11:12:48.650Z,12.60
2019-03-28T11:15:17.059Z,6.00
2019-03-28T11:17:45.464Z,7.90
2019-03-28T11:20:14.027Z,11.27
2019-03-28T11:22:42.432Z,4.90
2019-03-28T11:25:10.911Z,5.60
2019-03-28T11:27:39.323Z,5.23
2019-03-28T11:30:08.829Z,6.03
2019-03-28T11:32:37.235Z,7.33
2019-03-28T11:35:07.288Z,5.67
2019-03-28T11:37:36.591Z,5.13
2019-03-28T11:40:09.258Z,6.90
2019-03-28T11:42:37.830Z,4.43
2019-03-28T11:45:09.463Z,5.20
2019-03-28T11:47:38.410Z,6.60
2019-03-28T11:50:08.457Z,7.10
2019-03-28T11:52:37.016Z,8.00
2019-03-28T11:55:08.843Z,5.27
2019-03-28T11:57:37.773Z,4.43
2019-03-28T12:00:12.159Z,11.03
2019-03-28T12:02:40.571Z,5.37
2019-03-28T12:05:09.615Z,4.03
2019-03-28T12:07:37.993Z,4.50
2019-03-28T12:10:11.201Z,5.50
2019-03-28T12:12:39.606Z,5.83
2019-03-28T12:15:08.549Z,2.93
2019-03-28T12:17:36.956Z,5.30
2019-03-28T12:20:08.668Z,3.73
2019-03-28T12:22:37.143Z,4.13
2019-03-28T12:25:06.832Z,4.70
2019-03-28T12:27:35.233Z,3.87
2019-03-28T12:30:05.678Z,3.43
2019-03-28T12:32:34.065Z,4.33
2019-03-28T12:35:02.493Z,3.93
2019-03-28T12:37:30.887Z,3.80
2019-03-28T12:40:00.092Z,2.93
2019-03-28T12:42:28.667Z,3.73
2019-03-28T12:44:57.649Z,3.07
2019-03-28T12:47:40.998Z,4.00
2019-03-28T12:49:57.489Z,4.80
2019-03-28T12:52:26.225Z,3.90
2019-03-28T12:54:54.934Z,2.47
2019-03-28T12:57:23.402Z,4.07
2019-03-28T12:59:53.615Z,6.07
2019-03-28T13:02:28.653Z,4.50
2019-03-28T13:04:52.088Z,4.90
2019-03-28T13:07:20.505Z,7.37
2019-03-28T13:09:48.893Z,5.73
2019-03-28T13:12:17.285Z,7.70
2019-03-28T13:14:45.686Z,5.33
2019-03-28T13:17:14.174Z,4.60
2019-03-28T13:19:42.593Z,4.80
2019-03-28T13:22:10.979Z,6.13
2019-03-28T13:24:39.459Z,4.50
2019-03-28T13:27:07.856Z,5.77
2019-03-28T13:29:36.263Z,6.70
2019-03-28T13:32:04.667Z,7.20
2019-03-28T13:34:33.058Z,7.10
2019-03-28T13:37:01.465Z,4.83
2019-03-28T13:39:29.870Z,5.80
2019-03-28T13:41:58.271Z,6.47
2019-03-28T13:44:26.681Z,5.83
2019-03-28T13:46:55.082Z,8.00
2019-03-28T13:49:23.479Z,4.20
2019-03-28T13:51:51.895Z,6.03
2019-03-28T13:54:39.647Z,4.60
2019-03-28T13:57:08.051Z,3.40
2019-03-28T13:59:43.214Z,7.60
2019-03-28T14:02:11.618Z,3.70
2019-03-28T14:04:40.030Z,3.80
2019-03-28T14:07:08.447Z,4.90
2019-03-28T14:09:36.845Z,7.33
2019-03-28T14:12:05.317Z,7.70
2019-03-28T14:14:33.719Z,5.87
2019-03-28T14:17:02.138Z,4.80
2019-03-28T14:19:30.540Z,5.97
2019-03-28T14:21:58.965Z,6.97
2019-03-28T14:24:27.385Z,6.93
2019-03-28T14:27:15.119Z,4.60
2019-03-28T14:29:43.540Z,4.97
2019-03-28T14:32:11.940Z,6.57
2019-03-28T14:34:40.355Z,5.93
2019-03-28T14:37:08.825Z,4.67
2019-03-28T14:39:37.230Z,8.67
2019-03-28T14:42:05.626Z,7.10
2019-03-28T14:44:34.043Z,7.10
2019-03-28T14:47:03.401Z,4.27
2019-03-28T14:49:31.825Z,6.53
2019-03-28T14:52:00.240Z,7.03
2019-03-28T14:54:28.638Z,6.23
2019-03-28T14:56:58.275Z,4.77
2019-03-28T14:59:32.850Z,7.03
2019-03-28T15:01:57.358Z,6.07
2019-03-28T15:04:25.800Z,5.27
2019-03-28T15:06:54.588Z,8.03
2019-03-28T15:09:23.025Z,7.20
2019-03-28T15:11:51.389Z,4.27
2019-03-28T15:14:20.373Z,6.80
2019-03-28T15:16:49.661Z,9.70
2019-03-28T15:19:18.087Z,12.83
2019-03-28T15:21:46.477Z,7.07
2019-03-28T15:24:14.885Z,6.67
2019-03-28T15:26:43.523Z,7.30
2019-03-28T15:29:11.985Z,5.30
2019-03-28T15:31:40.381Z,5.23
2019-03-28T15:34:08.844Z,5.50
2019-03-28T15:36:37.251Z,6.73
2019-03-28T15:39:07.900Z,5.40
2019-03-28T15:41:36.832Z,6.87
2019-03-28T15:44:05.314Z,8.53
2019-03-28T15:46:33.702Z,5.30
2019-03-28T15:49:02.120Z,6.30
2019-03-28T15:51:30.524Z,6.97
2019-03-28T15:53:59.215Z,6.53
2019-03-28T15:56:27.642Z,12.23
2019-03-28T15:58:56.051Z,6.93
2019-03-28T16:01:24.453Z,5.97
2019-03-28T16:03:53.583Z,11.13
2019-03-28T16:06:24.125Z,7.27
2019-03-28T16:08:52.265Z,6.00
2019-03-28T16:11:20.681Z,6.30
2019-03-28T16:13:49.071Z,6.07
2019-03-28T16:16:17.481Z,5.63
2019-03-28T16:18:45.896Z,6.70
2019-03-28T16:21:14.281Z,8.97
2019-03-28T16:23:42.693Z,6.40
2019-03-28T16:26:11.089Z,5.30
2019-03-28T16:28:40.739Z,7.10
2019-03-28T16:31:09.297Z,6.40
2019-03-28T16:33:37.694Z,6.83
2019-03-28T16:36:06.106Z,8.90
2019-03-28T16:38:35.482Z,11.50
2019-03-28T16:41:03.886Z,7.13
2019-03-28T16:43:32.306Z,7.70
2019-03-28T16:46:00.716Z,4.87
2019-03-28T16:48:29.112Z,8.00
2019-03-28T16:50:57.516Z,7.07
2019-03-28T16:53:25.912Z,8.17
2019-03-28T16:55:54.624Z,8.37
2019-03-28T16:58:23.228Z,10.30
2019-03-28T17:00:51.640Z,5.17
2019-03-28T17:03:20.044Z,6.23
2019-03-28T17:05:48.447Z,6.97
2019-03-28T17:08:17.705Z,4.90
2019-03-28T17:10:48.785Z,4.87
2019-03-28T17:13:17.567Z,5.67
2019-03-28T17:15:46.166Z,6.23
2019-03-28T17:18:14.621Z,7.70
2019-03-28T17:20:43.105Z,6.83
2019-03-28T17:23:11.576Z,8.13
2019-03-28T17:25:39.982Z,5.17
2019-03-28T17:28:08.595Z,7.07
2019-03-28T17:30:36.999Z,5.70
2019-03-28T17:33:05.940Z,3.93
2019-03-28T17:35:34.481Z,8.90
2019-03-28T17:38:02.869Z,8.87
2019-03-28T17:40:31.299Z,8.10
2019-03-28T17:42:59.713Z,14.60
2019-03-28T17:45:30.069Z,38.43
2019-03-28T17:47:58.479Z,22.77
2019-03-28T17:50:26.872Z,10.20
2019-03-28T17:52:55.360Z,7.60
2019-03-28T17:55:24.646Z,5.77
2019-03-28T17:57:53.701Z,6.53
2019-03-28T18:00:22.730Z,9.77
2019-03-28T18:02:51.567Z,7.40
2019-03-28T18:05:20.003Z,8.30
2019-03-28T18:07:48.408Z,6.40
2019-03-28T18:10:17.053Z,3.93
2019-03-28T18:12:45.522Z,5.60
2019-03-28T18:15:15.550Z,7.73
2019-03-28T18:17:44.077Z,3.60
2019-03-28T18:20:13.615Z,5.10
2019-03-28T18:22:42.020Z,4.63
2019-03-28T18:25:10.834Z,5.63
2019-03-28T18:27:39.250Z,3.67
2019-03-28T18:30:08.392Z,3.80
2019-03-28T18:32:39.325Z,3.83
2019-03-28T18:35:08.636Z,3.27
2019-03-28T18:37:37.048Z,6.90
2019-03-28T18:40:07.091Z,4.67
2019-03-28T18:42:35.491Z,5.70
2019-03-28T18:45:07.762Z,6.40
2019-03-28T18:47:36.394Z,6.63
2019-03-28T18:50:06.330Z,5.30
2019-03-28T18:52:35.702Z,8.67
2019-03-28T18:55:06.050Z,7.93
2019-03-28T18:57:34.446Z,10.20
2019-03-28T19:00:03.718Z,6.17
2019-03-28T19:02:32.139Z,7.43
2019-03-28T19:05:00.547Z,9.03
2019-03-28T19:07:28.949Z,4.87
2019-03-28T19:09:57.352Z,5.10
2019-03-28T19:12:26.733Z,7.70
2019-03-28T19:14:55.139Z,4.70
2019-03-28T19:17:23.558Z,5.70
2019-03-28T19:19:51.960Z,4.90
2019-03-28T19:22:20.374Z,4.13
2019-03-28T19:24:54.661Z,3.70
2019-03-28T19:27:23.073Z,5.70
2019-03-28T19:29:51.554Z,4.73
2019-03-28T19:32:19.957Z,3.73
2019-03-28T19:34:48.364Z,8.40
2019-03-28T19:37:16.904Z,4.87
2019-03-28T19:39:45.285Z,3.60
2019-03-28T19:42:15.678Z,4.83
2019-03-28T19:44:44.427Z,3.87
2019-03-28T19:47:12.847Z,3.20
2019-03-28T19:49:41.398Z,5.50
2019-03-28T19:52:13.027Z,4.37
2019-03-28T19:54:39.934Z,4.17
2019-03-28T19:57:08.367Z,3.87
2019-03-28T19:59:36.771Z,4.27
2019-03-28T20:02:05.310Z,4.40
2019-03-28T20:04:35.246Z,4.00
2019-03-28T20:07:03.678Z,4.83
2019-03-28T20:09:32.054Z,4.37
2019-03-28T20:12:03.445Z,5.17
2019-03-28T20:14:30.579Z,4.37
2019-03-28T20:16:58.974Z,3.70
2019-03-28T20:19:28.927Z,7.47
2019-03-28T20:21:59.500Z,4.10
2019-03-28T20:24:27.642Z,5.50
2019-03-28T20:26:56.249Z,5.70
2019-03-28T20:29:24.819Z,4.57
2019-03-28T20:31:53.218Z,5.10
2019-03-28T20:34:21.618Z,4.50
2019-03-28T20:36:52.658Z,4.80
2019-03-28T20:39:20.163Z,4.47
2019-03-28T20:41:48.557Z,5.03
2019-03-28T20:44:16.963Z,5.30
2019-03-28T20:46:45.371Z,5.30
2019-03-28T20:49:13.783Z,7.70
2019-03-28T20:51:42.184Z,5.23
2019-03-28T20:54:10.609Z,6.73
2019-03-28T20:56:39.962Z,5.77
2019-03-28T20:59:08.358Z,6.70
2019-03-28T21:01:36.769Z,5.97
2019-03-28T21:04:05.222Z,5.93
2019-03-28T21:06:34.013Z,5.87
2019-03-28T21:09:03.464Z,6.40
2019-03-28T21:11:31.864Z,6.23
2019-03-28T21:14:00.281Z,6.50
2019-03-28T21:16:28.772Z,7.33
2019-03-28T21:18:57.179Z,7.23
2019-03-28T21:21:25.593Z,8.10
2019-03-28T21:23:53.991Z,7.93
2019-03-28T21:26:23.360Z,7.77
2019-03-28T21:28:51.755Z,7.60
2019-03-28T21:31:20.163Z,7.27
2019-03-28T21:33:48.608Z,11.33
2019-03-28T21:36:29.007Z,7.00
2019-03-28T21:38:48.120Z,6.83
2019-03-28T21:41:16.514Z,7.63
2019-03-28T21:43:44.919Z,9.43
2019-03-28T21:46:13.314Z,7.73
2019-03-28T21:48:42.914Z,9.70
2019-03-28T21:51:11.824Z,8.87
2019-03-28T21:53:40.279Z,9.30
2019-03-28T21:56:08.757Z,8.53
2019-03-28T21:58:37.163Z,9.10
2019-03-28T22:01:05.582Z,12.57
2019-03-28T22:03:34.851Z,11.67
2019-03-28T22:06:03.261Z,14.10
2019-03-28T22:08:32.231Z,10.13
2019-03-28T22:11:01.246Z,9.50
2019-03-28T22:13:29.651Z,10.57
2019-03-28T22:15:59.184Z,10.60
2019-03-28T22:18:27.603Z,10.53
2019-03-28T22:20:56.006Z,9.90
2019-03-28T22:23:24.433Z,12.13
2019-03-28T22:25:52.847Z,10.73
2019-03-28T22:28:21.251Z,9.90
2019-03-28T22:30:49.646Z,9.63
2019-03-28T22:33:18.054Z,9.97
2019-03-28T22:35:46.452Z,12.83
2019-03-28T22:38:14.877Z,11.93
2019-03-28T22:40:43.897Z,11.27
2019-03-28T22:43:12.470Z,9.87
2019-03-28T22:45:40.866Z,10.97
2019-03-28T22:48:11.085Z,15.63
2019-03-28T22:50:39.392Z,13.23
2019-03-28T22:53:07.789Z,9.53
2019-03-28T22:55:36.197Z,10.43
2019-03-28T22:58:05.053Z,13.07
2019-03-28T23:00:41.815Z,10.33
2019-03-28T23:03:10.363Z,12.13
2019-03-28T23:05:38.763Z,9.77
2019-03-28T23:08:07.243Z,9.73
2019-03-28T23:10:35.653Z,14.47
2019-03-28T23:13:04.134Z,11.47
2019-03-28T23:15:32.605Z,8.40
2019-03-28T23:18:01.001Z,8.90
2019-03-28T23:20:29.399Z,8.33
2019-03-28T23:22:57.830Z,9.10
2019-03-28T23:25:26.206Z,8.77
2019-03-28T23:27:55.538Z,8.60
2019-03-28T23:30:23.995Z,8.17
2019-03-28T23:32:52.397Z,8.83
2019-03-28T23:35:20.805Z,8.70
2019-03-28T23:37:49.226Z,8.10
2019-03-28T23:40:17.618Z,8.00
2019-03-28T23:42:46.057Z,7.60
2019-03-28T23:45:14.688Z,10.53
2019-03-28T23:47:43.114Z,8.97
2019-03-28T23:50:11.674Z,9.70
2019-03-28T23:52:40.125Z,11.03
2019-03-28T23:55:08.797Z,7.67
2019-03-28T23:57:37.208Z,8.77
